Terminal Aerodrome Forecast
Issued by NWS

Home | Current Version | Previous Version | Text Only | Print | Product List | Glossary On
Versions: 1 2 3 4 5 6 7 8 9 10 11 12 13 14 15 16 17 18 19 20 21 22 23 24 25 26 27 28 29 30 31
000
FTUS43 KDVN 212203 AAB
TAFCID
TAF AMD
KCID 212203Z 2122/2218 12010KT P6SM SCT090
      TEMPO 2122/2124 3SM TSRA BR BKN080CB
     FM220000 16008KT P6SM BKN100
     FM220600 19010KT P6SM SCT100 WS020/22040KT
     FM221200 22010KT P6SM SCT150=

USA.gov is the U.S. government's official web portal to all federal, state and local government web resources and services.